Time;durP1;ratioP1;P1;durP2;ratioP2;P2;SDS_P1;SDS_P2;PMS_P1;PMS_P2;Temp;Humidity;BMP_temperature;BMP_pressure;BME280_temperature;BME280_humidity;BME280_pressure;Samples;Min_cycle;Max_cycle;Signal;HPM_P1;HPM_P2
2023/12/11 00:01:39;;;;;;;5.60;2.80;;;;;;;8.19;77.04;97057.31;5043469;28;20037;-71
2023/12/11 00:04:04;;;;;;;8.00;2.50;;;;;;;8.31;77.27;97064.13;5039501;28;20022;-71
2023/12/11 00:06:29;;;;;;;8.40;2.97;;;;;;;8.29;76.68;97060.91;5031330;28;20090;-70
2023/12/11 00:08:55;;;;;;;6.60;2.10;;;;;;;8.31;77.50;97053.41;5044112;28;20033;-70
2023/12/11 00:11:21;;;;;;;5.80;2.70;;;;;;;8.29;76.85;97066.28;5046616;28;20059;-70
2023/12/11 00:13:46;;;;;;;7.68;2.60;;;;;;;8.35;76.95;97067.91;5025477;28;20106;-71
2023/12/11 00:16:12;;;;;;;6.93;2.30;;;;;;;8.31;77.32;97064.13;5043260;28;20192;-71
2023/12/11 00:18:37;;;;;;;7.05;2.42;;;;;;;8.37;77.34;97061.50;5050430;28;20024;-71
2023/12/11 00:21:02;;;;;;;8.20;2.38;;;;;;;8.28;78.11;97043.19;5041802;28;20466;-71
2023/12/11 00:23:28;;;;;;;6.05;2.45;;;;;;;8.43;77.71;97057.75;5049919;28;20036;-71
2023/12/11 00:25:54;;;;;;;8.70;2.53;;;;;;;8.51;78.76;97060.78;5039351;28;20124;-71
2023/12/11 00:28:19;;;;;;;6.32;2.25;;;;;;;8.45;79.63;97055.66;5046166;28;20096;-71
2023/12/11 00:30:44;;;;;;;6.75;2.30;;;;;;;8.44;80.36;97059.41;5040415;28;20025;-71
2023/12/11 00:33:10;;;;;;;5.47;2.78;;;;;;;8.49;80.70;97060.25;5045014;28;20043;-71
2023/12/11 00:35:35;;;;;;;7.65;2.45;;;;;;;8.46;82.19;97055.38;5042612;28;20044;-71
2023/12/11 00:38:01;;;;;;;7.35;2.38;;;;;;;8.52;82.25;97061.59;5045723;28;20060;-71
2023/12/11 00:40:26;;;;;;;8.30;2.78;;;;;;;8.52;81.97;97058.94;5027248;28;20048;-71
2023/12/11 00:42:52;;;;;;;6.28;2.20;;;;;;;8.47;82.34;97051.63;5044599;28;20028;-71
2023/12/11 00:45:17;;;;;;;5.03;2.30;;;;;;;8.49;82.78;97064.81;5045695;28;20516;-72
2023/12/11 00:47:43;;;;;;;5.55;2.33;;;;;;;8.43;83.31;97057.75;5042173;28;20017;-71
2023/12/11 00:50:08;;;;;;;6.22;2.50;;;;;;;8.49;83.35;97072.84;5042866;28;20486;-71
2023/12/11 00:52:33;;;;;;;5.50;2.38;;;;;;;8.38;83.33;97049.72;5049590;28;20104;-71
2023/12/11 00:54:59;;;;;;;7.13;2.45;;;;;;;8.48;83.19;97068.53;5020246;28;20196;-71
2023/12/11 00:57:25;;;;;;;6.90;2.90;;;;;;;8.51;83.82;97068.03;5049930;28;20021;-71
2023/12/11 00:59:50;;;;;;;7.03;2.40;;;;;;;8.51;83.58;97073.41;5039231;28;20037;-71
2023/12/11 01:02:17;;;;;;;6.25;2.58;;;;;;;8.47;84.07;97072.31;5045990;28;20025;-71
2023/12/11 01:04:43;;;;;;;6.63;2.47;;;;;;;8.48;83.95;97080.09;5043353;28;20044;-71
2023/12/11 01:07:09;;;;;;;8.38;2.42;;;;;;;8.44;83.91;97067.44;5046328;28;20021;-71
2023/12/11 01:09:34;;;;;;;6.30;2.33;;;;;;;8.46;83.89;97070.69;5022397;28;20048;-71
2023/12/11 01:11:59;;;;;;;5.45;2.10;;;;;;;8.50;84.42;97074.44;5045381;28;20036;-71
2023/12/11 01:14:25;;;;;;;5.90;2.30;;;;;;;8.51;84.28;97066.16;5040402;28;20409;-71
2023/12/11 01:16:50;;;;;;;7.53;2.08;;;;;;;8.52;84.22;97064.28;5044449;28;20075;-71
2023/12/11 01:19:15;;;;;;;5.50;2.08;;;;;;;8.48;84.75;97052.44;5046430;28;20048;-71
2023/12/11 01:21:41;;;;;;;3.25;2.00;;;;;;;8.52;84.68;97037.47;5044778;28;20029;-71
2023/12/11 01:24:06;;;;;;;4.25;2.20;;;;;;;8.45;84.49;97032.28;5044592;28;20120;-71
2023/12/11 01:26:32;;;;;;;5.68;2.35;;;;;;;8.48;84.87;97039.03;5050502;28;20064;-71
2023/12/11 01:28:57;;;;;;;5.28;2.55;;;;;;;8.45;85.03;97036.88;5042047;28;20037;-71
2023/12/11 01:31:22;;;;;;;5.03;2.20;;;;;;;8.42;85.81;97042.75;5046755;28;20029;-71
2023/12/11 01:33:48;;;;;;;4.30;2.00;;;;;;;8.37;85.23;97045.41;5039564;28;20117;-71
2023/12/11 01:36:13;;;;;;;5.03;2.15;;;;;;;8.46;85.68;97043.84;5047068;28;20389;-71
2023/12/11 01:38:38;;;;;;;6.55;2.17;;;;;;;8.43;85.88;97050.53;5043897;28;20040;-71
2023/12/11 01:41:04;;;;;;;8.18;2.40;;;;;;;8.41;86.11;97051.84;5046852;28;20059;-71
2023/12/11 01:43:29;;;;;;;4.95;1.88;;;;;;;8.41;86.03;97059.91;5043218;28;20029;-72
2023/12/11 01:46:13;;;;;;;5.18;1.80;;;;;;;8.39;85.49;97059.34;5046686;28;20445;-72
2023/12/11 01:48:39;;;;;;;5.95;2.13;;;;;;;8.39;86.62;97062.03;5040740;28;20087;-72
2023/12/11 01:51:05;;;;;;;3.83;2.63;;;;;;;8.41;86.44;97073.31;5044146;28;20028;-71
2023/12/11 01:53:32;;;;;;;3.15;2.10;;;;;;;8.38;86.47;97084.59;5029856;28;20044;-71
2023/12/11 01:55:57;;;;;;;3.63;2.10;;;;;;;8.36;86.87;97084.81;5042307;28;20036;-71
2023/12/11 01:58:24;;;;;;;3.88;1.98;;;;;;;8.32;87.21;97068.44;5044697;28;20025;-71
2023/12/11 02:00:50;;;;;;;5.47;2.20;;;;;;;8.40;86.77;97071.72;5041805;28;20040;-71
2023/12/11 02:03:15;;;;;;;5.35;2.03;;;;;;;8.39;87.06;97065.53;5042920;28;20497;-71
2023/12/11 02:05:44;;;;;;;4.97;2.17;;;;;;;8.47;87.51;97062.34;5044814;28;20029;-71
2023/12/11 02:08:10;;;;;;;7.53;2.65;;;;;;;8.51;86.44;97065.34;5044491;28;20025;-71
2023/12/11 02:10:36;;;;;;;5.32;2.03;;;;;;;8.52;86.88;97070.44;5034364;28;20426;-71
2023/12/11 02:13:02;;;;;;;5.10;2.35;;;;;;;8.46;87.05;97059.94;5042612;28;20057;-71
2023/12/11 02:15:40;;;;;;;4.25;1.95;;;;;;;8.55;86.41;97069.94;5051670;28;20035;-70
2023/12/11 02:18:08;;;;;;;5.97;2.40;;;;;;;8.54;87.43;97075.56;5051081;28;20051;-70
2023/12/11 02:20:34;;;;;;;6.97;2.53;;;;;;;8.51;87.44;97068.03;5047728;28;20554;-72
2023/12/11 02:23:06;;;;;;;3.28;2.13;;;;;;;8.59;87.50;97065.66;5049545;28;20045;-72
2023/12/11 02:25:35;;;;;;;4.32;2.40;;;;;;;8.53;87.46;97060.53;5046868;28;20041;-71
2023/12/11 02:28:01;;;;;;;5.85;1.90;;;;;;;8.57;87.84;97072.34;5041486;28;20497;-71
2023/12/11 02:30:28;;;;;;;2.63;1.85;;;;;;;8.52;88.63;97056.25;5046797;28;20043;-71
2023/12/11 02:32:54;;;;;;;2.95;2.08;;;;;;;8.61;88.56;97073.47;5042542;28;20053;-71
2023/12/11 02:35:20;;;;;;;3.85;1.90;;;;;;;8.53;89.13;97061.34;5051530;28;20072;-70
2023/12/11 02:37:45;;;;;;;5.20;2.17;;;;;;;8.59;88.33;97059.50;5042128;28;20018;-71
2023/12/11 02:40:11;;;;;;;5.88;1.90;;;;;;;8.50;89.04;97042.25;5039228;28;20033;-71
2023/12/11 02:42:36;;;;;;;4.20;2.45;;;;;;;8.52;89.25;97056.25;5047023;28;20369;-71
2023/12/11 02:45:01;;;;;;;3.28;2.03;;;;;;;8.55;89.24;97058.38;5050006;28;20043;-71
2023/12/11 02:47:27;;;;;;;4.13;2.40;;;;;;;8.53;89.18;97060.53;5029683;28;20020;-71
2023/12/11 02:49:52;;;;;;;4.22;2.10;;;;;;;8.55;89.04;97047.66;5047496;28;20533;-72
2023/12/11 02:52:18;;;;;;;3.33;2.15;;;;;;;8.47;89.21;97040.09;5036348;28;20025;-72
2023/12/11 02:54:43;;;;;;;5.07;2.28;;;;;;;8.59;89.04;97051.47;5046980;28;20033;-71
2023/12/11 02:57:09;;;;;;;6.43;2.30;;;;;;;8.62;88.92;97042.88;5048130;28;20066;-71
2023/12/11 02:59:34;;;;;;;3.35;1.90;;;;;;;8.62;88.69;97057.09;5043807;28;20037;-71
2023/12/11 03:02:00;;;;;;;3.80;2.05;;;;;;;8.68;88.95;97057.94;5045974;28;20104;-72
2023/12/11 03:04:25;;;;;;;5.22;2.00;;;;;;;8.70;88.93;97061.19;5047033;28;20044;-71
2023/12/11 03:06:51;;;;;;;2.35;1.95;;;;;;;8.58;89.09;97036.41;5044227;28;20032;-71
2023/12/11 03:09:16;;;;;;;2.72;2.10;;;;;;;8.48;88.48;97039.03;5042913;28;20477;-71
2023/12/11 03:11:42;;;;;;;6.43;2.47;;;;;;;8.63;88.65;97060.59;5047140;28;20029;-71
2023/12/11 03:14:07;;;;;;;3.28;2.10;;;;;;;8.58;88.98;97057.88;5040887;28;20087;-71
2023/12/11 03:16:33;;;;;;;6.70;2.20;;;;;;;8.63;88.88;97065.97;5046000;28;20017;-71
2023/12/11 03:18:58;;;;;;;3.50;2.40;;;;;;;8.65;89.00;97063.81;5047964;28;20104;-71
2023/12/11 03:21:24;;;;;;;5.38;2.40;;;;;;;8.65;88.37;97070.00;5044309;28;20535;-72
2023/12/11 03:23:49;;;;;;;5.07;2.00;;;;;;;8.63;89.23;97074.00;5045654;28;20068;-72
2023/12/11 03:26:14;;;;;;;3.53;2.22;;;;;;;8.54;88.92;97054.09;5041993;28;20017;-72
2023/12/11 03:28:40;;;;;;;3.85;2.20;;;;;;;8.67;88.44;97072.41;5046248;28;20040;-72
2023/12/11 03:31:05;;;;;;;5.15;2.05;;;;;;;8.71;88.94;97074.31;5047625;28;20033;-71
2023/12/11 03:33:31;;;;;;;2.60;2.15;;;;;;;8.76;88.48;97076.22;5040269;28;20045;-72
2023/12/11 03:35:56;;;;;;;2.53;2.00;;;;;;;8.66;88.86;97060.88;5045155;28;20036;-71
2023/12/11 03:38:21;;;;;;;3.75;1.90;;;;;;;8.77;88.77;97078.66;5046765;28;20047;-72
2023/12/11 03:40:47;;;;;;;3.28;1.98;;;;;;;8.76;88.24;97081.59;5048492;28;20033;-71
2023/12/11 03:43:12;;;;;;;3.05;2.40;;;;;;;8.71;88.21;97052.84;5038218;28;20048;-71
2023/12/11 03:45:38;;;;;;;5.78;2.45;;;;;;;8.78;88.68;97072.22;5048676;28;20025;-71
2023/12/11 03:48:03;;;;;;;5.13;2.05;;;;;;;8.80;88.65;97075.44;5042911;28;20041;-71
2023/12/11 03:50:28;;;;;;;3.63;2.08;;;;;;;8.84;88.36;97081.13;5046155;28;20096;-71
2023/12/11 03:52:54;;;;;;;3.13;2.30;;;;;;;8.84;88.57;97081.13;5048646;28;20040;-71
2023/12/11 03:55:19;;;;;;;2.85;2.00;;;;;;;8.90;88.56;97074.69;5043643;28;20076;-71
2023/12/11 03:57:45;;;;;;;5.65;2.40;;;;;;;8.90;87.99;97082.75;5049092;28;20503;-71
2023/12/11 04:00:11;;;;;;;3.55;2.08;;;;;;;8.91;88.31;97079.78;5040812;28;20113;-71
2023/12/11 04:02:36;;;;;;;3.80;2.25;;;;;;;8.88;88.48;97068.78;5047900;28;20120;-71
2023/12/11 04:05:02;;;;;;;3.20;2.20;;;;;;;8.87;88.68;97077.88;5047242;28;20067;-71
2023/12/11 04:07:28;;;;;;;2.85;1.80;;;;;;;8.78;88.99;97057.97;5037092;28;20048;-71
2023/12/11 04:09:53;;;;;;;2.90;1.90;;;;;;;8.93;88.77;97063.44;5044761;28;20131;-71
2023/12/11 04:12:18;;;;;;;2.90;2.15;;;;;;;8.91;88.29;97062.91;5024204;28;20131;-71
2023/12/11 04:14:44;;;;;;;3.53;2.33;;;;;;;8.92;88.23;97065.31;5044065;28;20039;-71
2023/12/11 04:17:09;;;;;;;4.32;2.00;;;;;;;8.89;88.22;97046.25;5028933;28;20060;-72
2023/12/11 04:19:34;;;;;;;2.42;2.20;;;;;;;8.81;88.39;97041.34;5048586;28;20484;-71
2023/12/11 04:22:00;;;;;;;2.85;2.10;;;;;;;8.94;88.40;97065.03;5043849;28;20037;-71
2023/12/11 04:24:25;;;;;;;2.58;2.13;;;;;;;8.72;88.38;97024.97;5047906;28;20072;-71
2023/12/11 04:26:51;;;;;;;4.63;2.70;;;;;;;8.89;88.20;97051.63;5043948;28;20044;-70
2023/12/11 04:29:16;;;;;;;3.05;1.98;;;;;;;8.84;88.72;97054.28;5043496;28;20029;-71
2023/12/11 04:31:41;;;;;;;3.60;1.98;;;;;;;8.91;88.83;97052.16;5017837;28;20124;-70
2023/12/11 04:34:07;;;;;;;3.70;2.10;;;;;;;8.94;88.60;97054.28;5043001;28;20017;-70
2023/12/11 04:36:32;;;;;;;4.45;2.13;;;;;;;8.86;88.63;97046.75;5050713;28;20405;-71
2023/12/11 04:38:57;;;;;;;3.80;2.22;;;;;;;8.90;88.61;97045.97;5040546;28;20056;-71
2023/12/11 04:41:23;;;;;;;3.33;2.30;;;;;;;8.86;88.93;97034.16;5047640;28;20124;-71
2023/12/11 04:43:48;;;;;;;3.30;2.83;;;;;;;8.94;88.92;97047.06;5044749;28;20108;-71
2023/12/11 04:46:14;;;;;;;4.75;2.38;;;;;;;8.96;88.82;97038.75;5047094;28;20421;-71
2023/12/11 04:48:39;;;;;;;3.08;2.10;;;;;;;8.88;88.44;97025.81;5038170;28;20022;-71
2023/12/11 04:51:05;;;;;;;3.50;2.40;;;;;;;8.98;88.60;97047.34;5026084;28;20490;-71
2023/12/11 04:53:30;;;;;;;6.43;2.55;;;;;;;8.94;88.91;97040.88;5040004;28;20040;-71
2023/12/11 04:55:56;;;;;;;6.63;3.58;;;;;;;9.03;88.50;97044.69;5043316;28;20044;-70
2023/12/11 04:58:21;;;;;;;6.30;3.20;;;;;;;9.00;88.47;97045.22;5044552;28;20083;-70
2023/12/11 05:00:46;;;;;;;6.22;3.10;;;;;;;9.07;88.33;97053.84;5041752;28;20116;-70
2023/12/11 05:03:12;;;;;;;10.90;5.18;;;;;;;9.05;88.63;97047.94;5043820;28;20029;-71
2023/12/11 05:05:37;;;;;;;4.85;3.33;;;;;;;9.02;88.79;97043.06;5049109;28;20037;-70
2023/12/11 05:08:03;;;;;;;5.15;3.97;;;;;;;9.03;88.33;97045.47;5033015;28;20041;-70
2023/12/11 05:10:28;;;;;;;8.55;4.18;;;;;;;9.02;88.17;97053.81;5046452;28;20037;-70
2023/12/11 05:12:54;;;;;;;7.47;3.67;;;;;;;9.00;88.18;97053.28;5039184;28;20116;-71
2023/12/11 05:15:19;;;;;;;7.65;3.70;;;;;;;8.93;88.28;97047.34;5047790;28;20037;-71
2023/12/11 05:17:45;;;;;;;7.60;3.50;;;;;;;9.01;88.19;97052.19;5045846;28;20037;-71
2023/12/11 05:20:12;;;;;;;6.88;4.80;;;;;;;9.08;88.03;97058.13;5046511;28;20564;-71
2023/12/11 05:22:38;;;;;;;6.28;3.42;;;;;;;9.08;88.34;97052.75;5042495;28;20025;-71
2023/12/11 05:25:04;;;;;;;5.75;3.08;;;;;;;9.09;88.08;97049.00;5045581;28;20048;-71
2023/12/11 05:27:29;;;;;;;5.35;2.88;;;;;;;8.99;87.98;97054.31;5037192;28;20026;-72
2023/12/11 05:29:54;;;;;;;4.43;2.65;;;;;;;9.05;88.06;97048.72;5041096;28;20041;-71
2023/12/11 05:32:20;;;;;;;4.57;3.08;;;;;;;9.08;88.16;97058.13;5039932;28;20048;-70
2023/12/11 05:34:45;;;;;;;7.47;6.10;;;;;;;9.11;88.22;97067.53;5039183;28;20397;-71
2023/12/11 05:37:11;;;;;;;7.35;6.20;;;;;;;9.16;88.10;97071.06;5026573;28;20049;-70
2023/12/11 05:39:36;;;;;;;55.75;42.08;;;;;;;9.10;88.24;97058.69;5043894;28;20052;-71
2023/12/11 05:42:02;;;;;;;60.88;47.63;;;;;;;9.10;88.20;97066.75;5046032;28;20025;-70
2023/12/11 05:44:27;;;;;;;386.67;268.77;;;;;;;9.08;87.94;97063.50;5053077;28;20032;-71
2023/12/11 05:46:52;;;;;;;36.80;27.83;;;;;;;9.16;88.63;97073.75;5046268;28;20025;-71
2023/12/11 05:49:18;;;;;;;5.90;4.80;;;;;;;9.08;88.65;97058.13;5050516;28;20063;-71
2023/12/11 05:51:43;;;;;;;5.65;3.53;;;;;;;9.19;88.06;97073.22;5044364;28;20018;-71
2023/12/11 05:54:09;;;;;;;4.10;3.53;;;;;;;9.04;88.96;97062.41;5049602;28;20514;-71
2023/12/11 05:56:34;;;;;;;5.15;2.90;;;;;;;9.20;88.60;97077.50;5045289;28;20082;-71
2023/12/11 05:59:00;;;;;;;6.82;3.05;;;;;;;9.19;88.85;97075.91;5049574;28;20116;-71
2023/12/11 06:01:26;;;;;;;3.10;2.85;;;;;;;9.18;88.55;97079.66;5042862;28;20021;-71
2023/12/11 06:03:52;;;;;;;3.67;2.80;;;;;;;9.18;88.45;97071.59;5047725;28;20051;-71
2023/12/11 06:06:17;;;;;;;5.53;2.95;;;;;;;9.09;87.99;97065.13;5048403;28;20112;-71
2023/12/11 06:08:44;;;;;;;5.35;2.95;;;;;;;9.16;87.99;97060.31;5040252;28;20025;-71
2023/12/11 06:11:10;;;;;;;3.25;2.40;;;;;;;9.22;87.95;97064.63;5047373;28;20044;-71
2023/12/11 06:13:35;;;;;;;5.30;3.25;;;;;;;9.18;87.78;97043.94;5046168;28;20090;-71
2023/12/11 06:16:01;;;;;;;5.75;2.80;;;;;;;9.21;87.72;97052.28;5046089;28;20108;-71
2023/12/11 06:18:26;;;;;;;6.30;3.80;;;;;;;9.31;87.38;97076.47;5051564;28;20404;-71
2023/12/11 06:20:52;;;;;;;4.93;2.75;;;;;;;9.13;87.69;97055.47;5043306;28;20501;-73
2023/12/11 06:23:17;;;;;;;5.97;3.63;;;;;;;9.22;87.65;97064.63;5032673;28;20043;-71
2023/12/11 06:25:42;;;;;;;11.85;5.50;;;;;;;9.15;87.53;97058.69;5047676;28;20028;-71
2023/12/11 06:28:08;;;;;;;11.50;6.63;;;;;;;9.20;87.44;97056.03;5050606;28;20049;-71
2023/12/11 06:30:33;;;;;;;5.53;3.00;;;;;;;9.28;87.31;97063.59;5045208;28;20388;-71
2023/12/11 06:32:59;;;;;;;5.45;2.65;;;;;;;9.27;87.13;97056.59;5049476;28;20029;-71
2023/12/11 06:35:24;;;;;;;5.55;2.75;;;;;;;9.25;87.28;97057.91;5042487;28;20113;-71
2023/12/11 06:37:50;;;;;;;6.43;2.90;;;;;;;9.21;87.54;97068.41;5041573;28;20515;-71
2023/12/11 06:40:15;;;;;;;4.85;2.83;;;;;;;9.01;87.55;97036.88;5048713;28;20383;-71
2023/12/11 06:42:41;;;;;;;7.03;2.80;;;;;;;9.17;87.24;97055.75;5046864;28;20150;-71
2023/12/11 06:45:09;;;;;;;7.50;3.45;;;;;;;9.13;87.69;97042.03;5046708;28;20021;-71
2023/12/11 06:47:37;;;;;;;7.50;3.70;;;;;;;9.18;87.49;97030.50;5035679;28;20052;-70
2023/12/11 06:50:03;;;;;;;6.63;3.50;;;;;;;9.15;87.86;97039.88;5034874;28;20030;-70
2023/12/11 06:52:29;;;;;;;10.25;4.80;;;;;;;9.11;87.47;97046.03;5037846;28;20033;-70
2023/12/11 06:54:54;;;;;;;7.88;4.68;;;;;;;9.03;87.76;97015.16;5041722;28;20163;-71
2023/12/11 06:57:20;;;;;;;8.85;4.03;;;;;;;9.06;87.78;97022.66;5050732;28;20082;-71
2023/12/11 06:59:46;;;;;;;9.02;3.92;;;;;;;9.00;87.73;97019.19;5018351;28;20036;-71
2023/12/11 07:02:11;;;;;;;9.43;6.00;;;;;;;8.99;87.92;97020.22;5034166;28;20037;-71
2023/12/11 07:04:40;;;;;;;9.65;6.38;;;;;;;9.01;88.28;97019.97;5030181;28;20370;-71
2023/12/11 07:07:06;;;;;;;5.57;4.13;;;;;;;8.87;87.93;97005.41;5028789;28;20033;-71
2023/12/11 07:09:32;;;;;;;4.60;3.33;;;;;;;8.97;88.42;97013.50;5044607;28;20036;-71
2023/12/11 07:11:57;;;;;;;7.50;3.63;;;;;;;8.92;88.79;97006.25;5030824;28;20033;-71
2023/12/11 07:14:24;;;;;;;7.75;3.47;;;;;;;8.92;88.28;96997.38;5041469;28;20527;-71
2023/12/11 07:16:50;;;;;;;8.07;3.50;;;;;;;8.97;88.58;97002.75;5047337;28;20044;-71
2023/12/11 07:19:16;;;;;;;10.48;3.20;;;;;;;9.03;88.47;97012.47;5030578;28;20021;-71
2023/12/11 07:21:43;;;;;;;8.82;6.32;;;;;;;8.99;88.35;97006.00;5039115;28;20036;-71
2023/12/11 07:24:08;;;;;;;7.95;5.38;;;;;;;9.01;88.22;97011.91;5035827;28;20381;-71
2023/12/11 07:26:33;;;;;;;12.20;6.75;;;;;;;8.99;88.93;97011.38;5034799;28;20045;-71
2023/12/11 07:29:00;;;;;;;10.10;4.55;;;;;;;8.98;89.32;97004.41;5035848;28;20055;-71
2023/12/11 07:31:25;;;;;;;8.10;5.55;;;;;;;9.03;88.84;97009.78;5051502;28;20045;-71
2023/12/11 07:33:50;;;;;;;10.00;5.63;;;;;;;9.07;89.12;97013.56;5041237;28;20036;-71
2023/12/11 07:36:16;;;;;;;5.93;4.78;;;;;;;9.07;89.18;97012.75;5047920;28;20044;-71
2023/12/11 07:38:42;;;;;;;9.18;5.25;;;;;;;8.86;89.30;96968.91;5027163;28;20112;-72
2023/12/11 07:41:08;;;;;;;6.78;4.35;;;;;;;8.95;89.41;96978.88;5047779;28;20033;-72
2023/12/11 07:43:33;;;;;;;8.93;4.43;;;;;;;8.91;89.76;96985.03;5038960;28;20063;-72
2023/12/11 07:45:59;;;;;;;8.30;3.70;;;;;;;8.90;89.21;96969.97;5043636;28;20044;-71
2023/12/11 07:48:25;;;;;;;5.65;3.58;;;;;;;8.91;88.97;96972.41;5041738;28;20031;-71
2023/12/11 07:50:51;;;;;;;7.10;4.40;;;;;;;8.96;89.26;96968.94;5045727;28;20037;-72
2023/12/11 07:53:16;;;;;;;7.07;4.10;;;;;;;8.92;89.60;96965.16;5045332;28;20113;-72
2023/12/11 07:55:42;;;;;;;8.65;4.88;;;;;;;9.07;89.26;96984.00;5039203;28;20485;-71
2023/12/11 07:58:07;;;;;;;6.60;4.20;;;;;;;9.09;89.77;96968.44;5045609;28;20550;-72
2023/12/11 08:00:33;;;;;;;6.30;3.75;;;;;;;9.07;89.73;96959.84;5043360;28;20083;-71
2023/12/11 08:02:58;;;;;;;5.68;3.45;;;;;;;9.07;89.40;96949.09;5019162;28;20026;-71
2023/12/11 08:05:23;;;;;;;8.30;4.13;;;;;;;9.09;90.20;96946.97;5044517;28;20120;-71
2023/12/11 08:07:49;;;;;;;6.30;3.90;;;;;;;9.10;89.89;96948.59;5041358;28;20025;-71
2023/12/11 08:10:16;;;;;;;10.63;4.00;;;;;;;9.04;89.44;96923.59;5046467;28;20037;-71
2023/12/11 08:12:41;;;;;;;7.20;4.47;;;;;;;9.00;89.96;96917.13;5046594;28;20044;-72
2023/12/11 08:15:07;;;;;;;12.25;6.03;;;;;;;9.05;90.05;96935.13;5047463;28;20061;-70
2023/12/11 08:17:33;;;;;;;14.35;8.93;;;;;;;9.12;89.84;96938.38;5041404;28;20047;-71
2023/12/11 08:19:58;;;;;;;15.93;9.25;;;;;;;9.11;89.46;96928.69;5041266;28;20056;-71
2023/12/11 08:22:24;;;;;;;11.15;6.65;;;;;;;9.04;89.69;96925.47;5041965;28;20043;-71
2023/12/11 08:24:49;;;;;;;15.35;10.35;;;;;;;9.15;89.94;96935.13;5044917;28;20681;-72
2023/12/11 08:27:15;;;;;;;6.72;4.70;;;;;;;9.09;90.32;96924.66;5047843;28;20022;-71
2023/12/11 08:29:40;;;;;;;5.30;4.05;;;;;;;9.11;90.52;96938.63;5043644;28;20037;-71
2023/12/11 08:32:06;;;;;;;8.38;4.93;;;;;;;9.17;90.56;96924.94;5045716;28;20026;-71
2023/12/11 08:34:31;;;;;;;6.90;5.07;;;;;;;9.15;90.17;96919.03;5042870;28;20451;-71
2023/12/11 08:36:57;;;;;;;9.20;4.28;;;;;;;9.10;90.48;96905.63;5043165;28;20025;-71
2023/12/11 08:39:22;;;;;;;6.88;4.38;;;;;;;9.18;90.39;96929.25;5049795;28;20041;-71
2023/12/11 08:41:49;;;;;;;8.73;4.90;;;;;;;9.12;90.54;96914.19;5042421;28;20040;-71
2023/12/11 08:44:14;;;;;;;8.40;6.40;;;;;;;9.20;90.45;96940.53;5046787;28;20108;-71
2023/12/11 08:46:40;;;;;;;8.00;5.90;;;;;;;9.20;90.47;96931.66;5041678;28;20109;-71
2023/12/11 08:49:05;;;;;;;13.02;5.55;;;;;;;9.14;90.34;96922.78;5045177;28;20032;-71
2023/12/11 08:51:32;;;;;;;7.40;5.30;;;;;;;9.12;90.43;96922.25;5021285;28;20033;-71
2023/12/11 08:53:57;;;;;;;7.85;5.25;;;;;;;9.19;90.49;96927.38;5046470;28;20036;-71
2023/12/11 08:56:23;;;;;;;7.68;5.57;;;;;;;9.17;90.48;96933.00;5041437;28;20559;-71
2023/12/11 08:58:50;;;;;;;10.45;5.45;;;;;;;9.19;90.63;96930.88;5045213;28;20392;-71
2023/12/11 09:01:15;;;;;;;7.38;5.53;;;;;;;9.13;90.40;96921.16;5039481;28;20504;-71
2023/12/11 09:03:42;;;;;;;7.90;5.50;;;;;;;9.08;90.64;96913.09;5045417;28;20045;-71
2023/12/11 09:06:08;;;;;;;8.25;4.00;;;;;;;9.06;90.18;96904.50;5025298;28;20025;-71
2023/12/11 09:08:33;;;;;;;7.60;5.35;;;;;;;9.18;90.13;96921.19;5017099;28;20074;-71
2023/12/11 09:10:58;;;;;;;7.25;4.68;;;;;;;9.19;89.73;96912.06;5041727;28;20116;-71
2023/12/11 09:13:24;;;;;;;5.20;4.25;;;;;;;9.24;90.09;96911.25;5042223;28;20231;-71
2023/12/11 09:15:49;;;;;;;7.50;4.47;;;;;;;9.29;89.83;96922.03;5030352;28;20072;-72
2023/12/11 09:18:15;;;;;;;6.20;4.18;;;;;;;9.34;90.06;96925.50;5034507;28;20034;-71
2023/12/11 09:20:40;;;;;;;5.38;3.28;;;;;;;9.42;89.97;96918.78;5034912;28;20438;-71
2023/12/11 09:23:07;;;;;;;8.68;4.88;;;;;;;9.47;89.44;96911.56;5038046;28;20045;-71
2023/12/11 09:25:32;;;;;;;5.93;2.90;;;;;;;9.69;89.08;96919.31;5032471;28;20093;-71
2023/12/11 09:27:57;;;;;;;4.38;2.95;;;;;;;9.80;88.77;96920.94;5037245;28;20513;-73
2023/12/11 09:30:23;;;;;;;6.70;3.55;;;;;;;9.82;88.52;96917.97;5045687;28;20032;-72
2023/12/11 09:32:48;;;;;;;4.70;2.67;;;;;;;9.90;87.88;96917.41;5051255;28;20037;-71
2023/12/11 09:35:14;;;;;;;4.05;2.30;;;;;;;9.87;87.74;96904.53;5045816;28;20028;-71
2023/12/11 09:37:41;;;;;;;5.18;2.97;;;;;;;10.02;87.32;96923.31;5044331;28;20036;-72
2023/12/11 09:40:07;;;;;;;5.32;2.65;;;;;;;10.04;86.78;96929.22;5036376;28;20628;-72
2023/12/11 09:42:34;;;;;;;7.50;2.45;;;;;;;10.09;86.73;96929.22;5043360;28;20051;-72
2023/12/11 09:45:00;;;;;;;3.58;2.22;;;;;;;9.99;86.83;96929.25;5034339;28;20021;-71
2023/12/11 09:47:34;;;;;;;4.38;2.35;;;;;;;10.02;86.22;96923.31;5046656;28;20032;-71
2023/12/11 09:50:00;;;;;;;3.00;2.30;;;;;;;9.93;86.11;96914.19;5047879;28;20051;-71
2023/12/11 09:52:26;;;;;;;5.57;2.08;;;;;;;10.12;85.71;96923.34;5045371;28;20029;-71
2023/12/11 09:54:51;;;;;;;5.90;2.70;;;;;;;10.15;84.95;96907.44;5026173;28;20092;-72
2023/12/11 09:57:17;;;;;;;9.75;2.33;;;;;;;10.19;85.16;96910.41;5033383;28;20029;-71
2023/12/11 09:59:43;;;;;;;6.78;2.40;;;;;;;10.38;85.74;96911.44;5044864;28;20116;-72
2023/12/11 10:02:18;;;;;;;3.80;2.30;;;;;;;10.36;85.42;96908.22;5047926;28;20021;-72
2023/12/11 10:05:03;;;;;;;3.95;2.00;;;;;;;10.53;84.02;96919.44;5024646;28;20040;-71
2023/12/11 10:07:28;;;;;;;5.00;1.83;;;;;;;10.63;82.90;96903.25;5049171;28;20036;-71
2023/12/11 10:09:54;;;;;;;5.75;2.00;;;;;;;10.80;81.07;96892.13;5044753;28;20021;-71
2023/12/11 10:12:19;;;;;;;5.70;1.88;;;;;;;10.83;80.26;96900.44;5045220;28;20382;-71
2023/12/11 10:15:02;;;;;;;4.28;1.70;;;;;;;10.99;78.81;96907.38;5024962;28;20063;-71
2023/12/11 10:17:27;;;;;;;5.22;2.00;;;;;;;11.19;76.61;96900.25;5046449;28;20055;-71
2023/12/11 10:19:53;;;;;;;3.95;1.90;;;;;;;11.30;76.59;96905.28;5043298;28;20486;-72
2023/12/11 10:22:32;;;;;;;8.85;1.80;;;;;;;11.29;74.55;96892.09;5044115;28;20507;-71
2023/12/11 10:24:58;;;;;;;5.07;1.60;;;;;;;11.43;74.04;96891.19;5026487;28;20033;-72
2023/12/11 10:27:24;;;;;;;7.35;2.20;;;;;;;11.47;73.48;96881.44;5025814;28;20032;-71
2023/12/11 10:30:27;;;;;;;5.25;1.80;;;;;;;11.33;72.73;96885.88;5013571;28;20677;-71
2023/12/11 10:33:00;;;;;;;4.40;1.60;;;;;;;11.48;72.57;96890.34;5028315;28;20041;-72
2023/12/11 10:35:25;;;;;;;7.00;1.75;;;;;;;11.43;72.04;96875.00;5038396;28;20057;-71
2023/12/11 10:37:50;;;;;;;4.85;1.92;;;;;;;11.41;72.18;96884.47;5047913;28;20111;-72
2023/12/11 10:40:16;;;;;;;5.50;1.60;;;;;;;11.40;71.09;96885.53;5022440;28;20029;-71
2023/12/11 10:42:42;;;;;;;5.95;1.63;;;;;;;11.47;71.17;96875.25;5046856;28;20017;-71
2023/12/11 10:45:07;;;;;;;7.97;1.83;;;;;;;11.28;70.84;96866.22;5047737;28;20429;-71
2023/12/11 10:47:33;;;;;;;5.07;2.00;;;;;;;11.43;70.94;96890.38;5028806;28;20406;-71
2023/12/11 10:50:02;;;;;;;6.85;1.77;;;;;;;11.26;71.50;96858.44;5046931;28;20036;-71
2023/12/11 10:52:27;;;;;;;6.53;1.77;;;;;;;11.42;71.51;96877.97;5043816;28;20029;-72
2023/12/11 10:54:53;;;;;;;5.85;2.15;;;;;;;11.36;71.71;96884.50;5043652;28;20033;-72
2023/12/11 10:57:21;;;;;;;5.30;2.10;;;;;;;11.31;71.28;96877.25;5048822;28;20079;-72
2023/12/11 10:59:50;;;;;;;6.47;1.90;;;;;;;11.40;70.40;96890.94;5041157;28;20041;-72
2023/12/11 11:02:17;;;;;;;6.18;1.60;;;;;;;11.21;69.87;96885.41;5028059;28;20045;-72
2023/12/11 11:04:44;;;;;;;4.28;1.63;;;;;;;11.36;69.26;96882.63;5027944;28;20515;-71
2023/12/11 11:07:25;;;;;;;8.25;2.20;;;;;;;11.45;69.15;96885.50;5047641;28;20100;-71
2023/12/11 11:10:21;;;;;;;8.45;2.22;;;;;;;11.39;68.79;96889.34;5025131;28;20033;-71
2023/12/11 11:13:05;;;;;;;9.02;2.25;;;;;;;11.55;68.57;96893.53;5024621;28;20083;-71
2023/12/11 11:15:30;;;;;;;9.23;1.80;;;;;;;11.58;68.97;96903.72;5026520;28;20079;-71
2023/12/11 11:18:05;;;;;;;6.82;2.00;;;;;;;11.65;69.11;96893.41;5040122;28;20103;-73
2023/12/11 11:20:36;;;;;;;5.10;2.00;;;;;;;11.62;68.74;96892.09;5027709;28;20036;-73
2023/12/11 11:23:13;;;;;;;6.95;2.28;;;;;;;11.64;68.38;96887.25;5040480;28;20441;-73
2023/12/11 11:25:39;;;;;;;8.32;2.63;;;;;;;11.61;68.55;96882.41;5029727;28;20037;-73
2023/12/11 11:28:05;;;;;;;4.03;1.95;;;;;;;11.65;68.92;96885.31;5034119;28;20017;-74
2023/12/11 11:30:45;;;;;;;7.30;1.85;;;;;;;11.66;68.30;96892.34;5040267;28;20029;-72
2023/12/11 11:33:11;;;;;;;5.72;1.95;;;;;;;11.59;67.81;96891.84;5037049;28;20061;-72
2023/12/11 11:35:45;;;;;;;5.50;1.80;;;;;;;11.64;67.39;96900.72;5036237;28;20533;-72